岡山グライダークラブ活動状況掲示板あなたは無料カウンター人目の訪問者です

岡山グライダークラブ
岡山市浦安南町639-1 岡南飛行場
 使用機:シャイベ式 SF25C型 ファルケ   JA2330
      ヴァレンティン式17E型 タイフーン  JA2342
 練習日:毎日曜日  クラブルーム:電話 086-265-1810
この掲示板は岡山グライダークラブの活動状況をお知らせする掲示板です。
!!!この掲示板は投稿規制をしています。!!!
クラブ関連各種情報は 岡山グライダークラブクラブルーム      を       .
  ブリーフイング情報は  岡山グライダークラブブリーフィングルーム  をご覧下さい。 .
※写真はクリックすると拡大して見ることが出来ます。
岡南飛行場へのアクセス等は 岡南飛行場管理事務所 をご覧ください。
クラブの ホームページ ができました。

 
08月23日
by OGC at 2020/8/24(月) 01:46:15 No.20200824014331  削除コメント
1024 x 768 x 52,372バイト
No.1

08月23日
本日の参加者
  会員      15名
  その他      0名


@本日の様子






METAR
RJBK 230000Z 13004KT 090V190 15KM FEW015CU SCT025CU BKN/// 30/25 Q1008 A2979
RJOB 230000Z VRB01KT 9999 FEW015 SCT/// 28/23 Q1009
RJOT 230000Z 34003KT 290V050 9999 FEW020 BKN/// 29/24 Q1010
RJOA 230000Z VRB03KT 8000 FEW010 SCT015 BKN/// 26/22 Q1011
TAF
RJOB 222312Z 2300/2406 22004KT 9999 FEW015 SCT030
     TEMPO 2308/2312 TS FEW015 SCT020 FEW025CB BKN035
RJOT 222309Z 2300/2406 04006KT 9999 FEW025 SCT050
     BECMG 2306/2308 25005KT
     BECMG 2312/2315 15006KT
RJOA 222305Z 2300/2406 15005KT 9999 FEW020 SCT030
     TEMPO 2305/2309 TS FEW020 FEW025CB SCT030
     BECMG 2308/2310 32005KT
     BECMG 2321/2400 17005KT

本日は、レーダー画像の濃い雨雲が、岡南飛行場の直前に消滅したり、岡南飛行場の北側をかすめて通り過ぎたり、まさに「晴れの飛行場、岡南」でした。
ファルケは、先週から通常訓練を開始し、訓練生各々に課題解決にいそしんでいました。一方、タイフーンは整備が進み、来週には社内試験、耐空検査を受ける予定です。
また、本日、学生会員が入会し、平均年齢がググっと下がりました。

解散    18:30

1番機  10:35離陸 撤収機  17:40着陸 

SF25C JA2330 ファルケ     09Flt.4h25hmin  
17E   JA2342 タイフーン    00Flt.0h00min  
合計                    09Flt.4h25min

    << 戻る || ホームページ || 最新の掲示板へ